Main page
Satellite images 15-day forecastsClimateMarine weather Cyclones Lightning AirportsFAQ Newsletter About
Weather : Europe Africa North America South America Asia Australia-Oceania Others
Languages Contact

Baia Mare, Romania

latitude: 47-40N, longitude: 023-35E, elevation: 218 m


METAR: LRBM 262300Z AUTO VRB02KT 0550 R10/1300U FZFG VV002 M02/M02 Q1024
TAF: LRBM 261700Z 2618/2703 VRB04KT 0150 FZFG VV001

Time: 01:56 (23:56 UTC)

Current weather observation

The report was made 56 minutes ago, at 23:00 UTC
Wind 2 kt from variable directions
Temperature -2°C
Humidity 100%
Pressure 1024 hPa
Visibility: 0550 m
freezing fog

Change units

Forecast

The report was made 6 hours and 56 minutes ago, at 17:00 UTC
Forecast valid from 26 at 18 UTC to 27 at 03 UTC
Wind 4 kt from variable directions
Visibility: 0150 m
at a height of 100 ft
freezing fog
The information on this site is subject to a disclaimer
Weather : Europe Africa North America South America Asia Australia-Oceania Others
Satellite images 15-day forecastsClimateMarine weather Cyclones Lightning AirportsFAQ Languages Contact Newsletter About